Time;durP1;ratioP1;P1;durP2;ratioP2;P2;SDS_P1;SDS_P2;PMS_P1;PMS_P2;Temp;Humidity;BMP_temperature;BMP_pressure;BME280_temperature;BME280_humidity;BME280_pressure;Samples;Min_cycle;Max_cycle;Signal;HPM_P1;HPM_P2
2021/04/29 00:01:14;;;;;;;5.97;3.58;;;;;;;6.16;70.84;99917.22;5001714;28;20042;-58
2021/04/29 00:03:41;;;;;;;4.25;3.50;;;;;;;6.19;70.83;99918.94;5001913;28;20035;-58
2021/04/29 00:06:08;;;;;;;6.30;3.17;;;;;;;6.01;71.22;99925.78;5000485;28;20270;-58
2021/04/29 00:08:35;;;;;;;6.90;3.60;;;;;;;6.08;71.73;99926.63;5001892;28;20093;-58
2021/04/29 00:11:03;;;;;;;4.75;3.28;;;;;;;6.28;70.92;99936.91;5001313;28;20125;-57
2021/04/29 00:13:29;;;;;;;6.82;3.25;;;;;;;6.28;71.05;99928.38;5001782;28;20333;-58
2021/04/29 00:15:55;;;;;;;5.38;3.15;;;;;;;6.25;70.69;99934.34;5008296;28;20026;-57
2021/04/29 00:18:21;;;;;;;3.55;3.20;;;;;;;6.33;71.15;99935.22;5008528;28;20026;-57
2021/04/29 00:20:48;;;;;;;4.10;3.47;;;;;;;6.27;70.95;99940.38;5006739;28;20030;-57
2021/04/29 00:23:26;;;;;;;4.10;3.70;;;;;;;6.21;70.32;99935.22;5006802;28;20048;-56
2021/04/29 00:25:52;;;;;;;4.55;3.17;;;;;;;6.21;70.91;99928.38;5007491;28;20046;-56
2021/04/29 00:28:18;;;;;;;6.68;3.70;;;;;;;6.23;71.43;99943.81;5008118;28;20056;-58
2021/04/29 00:30:44;;;;;;;5.35;3.55;;;;;;;6.16;70.84;99930.06;5007924;28;20371;-58
2021/04/29 00:33:09;;;;;;;5.10;3.40;;;;;;;6.26;70.84;99930.09;5008105;28;20033;-58
2021/04/29 00:35:35;;;;;;;6.22;3.42;;;;;;;6.05;72.06;99940.34;5007991;28;20030;-58
2021/04/29 00:38:02;;;;;;;4.35;3.55;;;;;;;5.99;72.20;99937.78;5007945;28;20227;-57
2021/04/29 00:40:28;;;;;;;4.65;3.47;;;;;;;6.03;71.80;99948.94;5007944;28;20037;-58
2021/04/29 00:42:54;;;;;;;4.97;3.40;;;;;;;6.10;71.32;99926.63;5008045;28;20381;-57
2021/04/29 00:45:20;;;;;;;5.28;3.70;;;;;;;6.12;71.22;99943.78;5007953;28;20049;-58
2021/04/29 00:47:49;;;;;;;4.53;3.58;;;;;;;5.96;70.67;99916.31;5008315;28;20118;-56
2021/04/29 00:50:18;;;;;;;5.35;4.00;;;;;;;5.98;69.71;99897.47;5007016;28;20342;-57
2021/04/29 00:52:44;;;;;;;8.13;3.92;;;;;;;6.19;70.28;99940.34;5007800;28;20076;-56
2021/04/29 00:55:11;;;;;;;8.73;3.83;;;;;;;6.12;70.64;99941.22;5006922;28;20022;-57
2021/04/29 00:57:37;;;;;;;4.90;3.63;;;;;;;5.96;71.90;99945.44;5008078;28;20349;-57
2021/04/29 01:00:04;;;;;;;4.85;3.38;;;;;;;6.18;70.60;99951.50;5007604;28;20042;-57
2021/04/29 01:02:31;;;;;;;8.48;3.97;;;;;;;6.29;69.98;99950.66;5020351;28;20029;-57
2021/04/29 01:05:02;;;;;;;8.65;3.85;;;;;;;6.15;70.13;99948.06;5009196;28;20089;-59
2021/04/29 01:07:33;;;;;;;5.22;3.35;;;;;;;6.05;70.38;99948.06;5007544;28;20037;-57
2021/04/29 01:10:15;;;;;;;5.22;3.42;;;;;;;6.22;70.10;99967.78;5007800;28;20045;-57
2021/04/29 01:12:55;;;;;;;5.85;3.58;;;;;;;5.89;70.08;99902.59;5007707;28;20034;-57
2021/04/29 01:15:23;;;;;;;7.82;3.60;;;;;;;5.97;70.83;99949.78;5007765;28;20041;-57
2021/04/29 01:17:49;;;;;;;6.60;3.65;;;;;;;6.14;71.11;99967.81;5007807;28;20026;-58
2021/04/29 01:20:30;;;;;;;5.38;3.80;;;;;;;6.06;70.31;99966.91;5007956;28;20037;-58
2021/04/29 01:23:20;;;;;;;5.75;3.65;;;;;;;6.15;70.60;99971.22;5007556;28;20085;-59
2021/04/29 01:25:49;;;;;;;5.07;3.65;;;;;;;6.04;70.67;99966.94;5004842;28;20027;-58
2021/04/29 01:28:16;;;;;;;4.72;3.42;;;;;;;5.85;69.58;99903.44;5004400;28;20077;-58
2021/04/29 01:30:44;;;;;;;5.05;3.70;;;;;;;6.27;69.67;99975.50;5003954;28;20093;-61
2021/04/29 01:33:11;;;;;;;5.38;3.95;;;;;;;6.25;69.98;99974.66;5004781;28;20102;-57
2021/04/29 01:35:37;;;;;;;4.05;3.67;;;;;;;6.05;70.47;99968.63;5004111;28;20022;-57
2021/04/29 01:38:03;;;;;;;5.00;3.60;;;;;;;6.18;69.91;99971.22;5004157;28;20038;-57
2021/04/29 01:40:29;;;;;;;4.30;3.72;;;;;;;6.04;70.20;99977.22;5004722;28;20034;-57
2021/04/29 01:42:56;;;;;;;5.85;3.63;;;;;;;6.09;69.35;99968.66;5003841;28;20034;-57
2021/04/29 01:45:21;;;;;;;4.65;3.10;;;;;;;5.93;70.48;99977.97;5004526;28;20266;-57
2021/04/29 01:47:48;;;;;;;5.80;3.53;;;;;;;5.85;70.01;99963.41;5004427;28;20038;-57
2021/04/29 01:50:14;;;;;;;7.60;3.63;;;;;;;5.90;69.47;99975.41;5004132;28;20042;-58
2021/04/29 01:52:40;;;;;;;7.72;3.35;;;;;;;6.02;69.12;99978.06;5004054;28;20031;-58
2021/04/29 01:55:08;;;;;;;5.90;3.60;;;;;;;5.78;70.95;99982.25;5003305;28;20247;-57
2021/04/29 01:57:34;;;;;;;5.25;3.63;;;;;;;5.96;70.60;99988.31;5002481;28;20227;-57
2021/04/29 02:00:00;;;;;;;4.90;3.70;;;;;;;5.97;69.33;99988.34;5004305;28;20101;-56
2021/04/29 02:02:26;;;;;;;6.95;3.67;;;;;;;5.85;70.01;99970.28;5015097;28;20025;-57
2021/04/29 02:04:52;;;;;;;5.45;3.67;;;;;;;6.07;69.63;99986.66;5009769;28;20075;-57
2021/04/29 02:07:18;;;;;;;6.05;3.20;;;;;;;5.99;69.80;99988.34;5003802;28;20030;-57
2021/04/29 02:09:45;;;;;;;7.00;3.63;;;;;;;6.03;69.51;99978.06;5003771;28;20109;-57
2021/04/29 02:12:11;;;;;;;5.25;3.88;;;;;;;5.91;69.66;99990.00;5003739;28;20317;-57
2021/04/29 02:14:47;;;;;;;4.28;3.78;;;;;;;5.91;70.01;100013.13;5003668;28;20312;-56
2021/04/29 02:17:28;;;;;;;6.28;3.83;;;;;;;5.77;70.43;99987.38;5003670;28;20066;-57
2021/04/29 02:19:56;;;;;;;5.75;3.70;;;;;;;5.50;70.16;99947.88;5003953;28;20026;-56
2021/04/29 02:22:25;;;;;;;5.82;3.97;;;;;;;5.43;70.63;99953.84;5003530;28;20037;-56
2021/04/29 02:24:54;;;;;;;4.40;3.50;;;;;;;5.76;69.96;99983.06;5003621;28;20053;-56
2021/04/29 02:27:21;;;;;;;4.15;3.55;;;;;;;5.86;70.11;100002.84;5003049;28;20034;-57
2021/04/29 02:29:47;;;;;;;7.80;4.40;;;;;;;5.63;71.30;100016.47;5003461;28;20115;-57
2021/04/29 02:32:17;;;;;;;7.70;4.20;;;;;;;5.68;69.67;100012.19;5003413;28;20034;-56
2021/04/29 02:34:45;;;;;;;6.70;4.22;;;;;;;5.30;70.32;99953.81;5002808;28;20230;-56
2021/04/29 02:37:12;;;;;;;7.65;3.95;;;;;;;5.70;69.89;100022.47;5002704;28;20045;-56
2021/04/29 02:39:39;;;;;;;4.90;3.58;;;;;;;5.77;69.23;100019.09;5002630;28;20286;-57
2021/04/29 02:42:06;;;;;;;7.82;4.30;;;;;;;5.87;69.10;100020.84;5002653;28;20030;-57
2021/04/29 02:44:34;;;;;;;6.72;4.05;;;;;;;5.75;69.58;100030.22;5003172;28;20046;-56
2021/04/29 02:47:01;;;;;;;7.80;3.88;;;;;;;5.74;68.95;100029.31;5003227;28;20373;-57
2021/04/29 02:49:27;;;;;;;7.55;4.10;;;;;;;5.77;69.49;100033.63;5003427;28;20056;-57
2021/04/29 02:51:59;;;;;;;5.47;4.07;;;;;;;6.10;68.48;100037.19;5003463;28;20073;-58
2021/04/29 02:54:26;;;;;;;6.55;3.75;;;;;;;6.13;68.51;100032.94;5002636;28;20033;-57
2021/04/29 02:56:51;;;;;;;4.68;3.50;;;;;;;6.47;67.59;100034.69;5001898;28;20038;-56
2021/04/29 02:59:17;;;;;;;6.00;4.18;;;;;;;6.78;66.26;100032.97;5002797;28;20338;-56
2021/04/29 03:01:43;;;;;;;5.85;4.00;;;;;;;7.41;64.30;100030.31;5001434;28;20022;-56
2021/04/29 03:04:09;;;;;;;6.20;3.63;;;;;;;7.63;63.60;100037.97;5003017;28;20022;-57
2021/04/29 03:06:35;;;;;;;5.35;3.63;;;;;;;7.83;62.37;100035.31;5002196;28;20030;-57
2021/04/29 03:09:03;;;;;;;4.95;3.72;;;;;;;7.90;61.97;100043.88;5002838;28;20116;-57
2021/04/29 03:11:29;;;;;;;6.05;3.95;;;;;;;7.84;62.33;100042.19;5002467;28;20062;-57
2021/04/29 03:13:55;;;;;;;7.55;3.75;;;;;;;8.00;62.79;100039.53;5002253;28;20021;-57
2021/04/29 03:16:21;;;;;;;6.15;4.47;;;;;;;8.02;62.55;100035.22;5002632;28;20026;-58
2021/04/29 03:18:47;;;;;;;9.55;4.10;;;;;;;8.06;62.16;100049.81;5002947;28;20030;-57
2021/04/29 03:21:18;;;;;;;8.88;5.13;;;;;;;8.12;61.84;100045.50;5002901;28;20030;-57
2021/04/29 03:23:44;;;;;;;7.32;4.05;;;;;;;8.34;61.72;100052.22;5002095;28;20052;-58
2021/04/29 03:26:09;;;;;;;12.88;4.88;;;;;;;8.45;61.02;100041.00;5001662;28;20311;-58
2021/04/29 03:28:43;;;;;;;9.73;4.15;;;;;;;8.41;59.74;100041.88;5002135;28;20037;-57
2021/04/29 03:31:09;;;;;;;5.82;3.75;;;;;;;8.67;59.73;100047.75;5002004;28;20262;-58
2021/04/29 03:33:48;;;;;;;9.38;5.07;;;;;;;8.72;58.62;100045.97;5002477;28;20068;-57
2021/04/29 03:36:13;;;;;;;6.93;3.97;;;;;;;9.29;58.10;100051.50;5001932;28;20034;-57
2021/04/29 03:38:52;;;;;;;7.82;4.38;;;;;;;9.41;57.26;100053.06;5002092;28;20034;-58
2021/04/29 03:41:18;;;;;;;7.30;4.30;;;;;;;9.41;57.91;100047.06;5002061;28;20034;-58
2021/04/29 03:43:44;;;;;;;9.30;4.32;;;;;;;9.56;55.29;100056.38;5001516;28;20026;-58
2021/04/29 03:46:10;;;;;;;7.90;3.83;;;;;;;9.21;57.04;100049.84;5002200;28;20030;-58
2021/04/29 03:48:35;;;;;;;4.55;3.75;;;;;;;9.66;56.40;100052.78;5003459;28;20057;-58
2021/04/29 03:51:02;;;;;;;7.85;4.78;;;;;;;9.53;55.13;100053.81;5021679;28;20263;-58
2021/04/29 03:53:27;;;;;;;8.73;4.18;;;;;;;10.22;53.96;100054.66;5011184;28;20069;-57
2021/04/29 03:55:53;;;;;;;7.50;4.45;;;;;;;9.93;54.02;100053.34;5001806;28;20036;-57
2021/04/29 03:58:19;;;;;;;4.90;3.92;;;;;;;9.24;55.22;100049.81;5001016;28;20308;-57
2021/04/29 04:00:45;;;;;;;8.30;4.10;;;;;;;9.40;56.37;100053.94;5001767;28;20085;-58
2021/04/29 04:03:11;;;;;;;8.23;4.22;;;;;;;9.22;57.14;100061.88;5001729;28;20607;-57
2021/04/29 04:05:37;;;;;;;7.25;4.40;;;;;;;9.21;56.76;100063.63;5001910;28;20250;-56
2021/04/29 04:08:03;;;;;;;6.28;3.83;;;;;;;8.77;58.26;100064.88;5001329;28;20046;-58
2021/04/29 04:10:28;;;;;;;4.78;3.75;;;;;;;8.61;57.97;100067.56;5001532;28;20030;-58
2021/04/29 04:12:54;;;;;;;5.68;4.22;;;;;;;8.49;57.97;100069.38;5001916;28;20061;-58
2021/04/29 04:15:20;;;;;;;5.30;3.65;;;;;;;8.15;58.27;100069.53;5001556;28;20046;-59
2021/04/29 04:17:46;;;;;;;4.90;4.40;;;;;;;8.07;58.04;100072.16;5009316;28;20032;-59
2021/04/29 04:20:12;;;;;;;6.40;3.83;;;;;;;8.38;58.77;100072.84;5009454;28;20038;-58
2021/04/29 04:22:38;;;;;;;6.30;4.22;;;;;;;8.19;58.48;100077.25;5012263;28;20038;-58
2021/04/29 04:25:04;;;;;;;5.65;4.00;;;;;;;8.40;58.70;100075.44;5006237;28;20235;-58
2021/04/29 04:27:30;;;;;;;9.05;4.63;;;;;;;8.38;58.55;100078.03;5000832;28;20034;-58
2021/04/29 04:29:58;;;;;;;6.38;3.97;;;;;;;8.10;57.51;100080.72;5001141;28;20041;-59
2021/04/29 04:32:24;;;;;;;4.55;3.72;;;;;;;8.41;57.84;100082.31;5001298;28;20041;-60
2021/04/29 04:34:49;;;;;;;7.88;4.03;;;;;;;8.27;57.88;100090.13;5012088;28;20030;-59
2021/04/29 04:37:15;;;;;;;5.35;3.90;;;;;;;7.97;58.58;100083.38;5004580;28;20026;-59
2021/04/29 04:39:41;;;;;;;5.85;3.90;;;;;;;8.04;57.51;100095.41;5007189;28;20034;-59
2021/04/29 04:42:07;;;;;;;4.80;3.75;;;;;;;7.85;58.52;100099.75;5008339;28;20129;-59
2021/04/29 04:44:33;;;;;;;4.60;3.85;;;;;;;7.78;58.77;100092.06;5006312;28;20058;-58
2021/04/29 04:46:59;;;;;;;10.20;4.28;;;;;;;7.85;59.06;100105.78;5008758;28;20260;-58
2021/04/29 04:49:24;;;;;;;5.20;3.28;;;;;;;8.33;56.38;100100.41;5003005;28;20033;-57
2021/04/29 04:51:50;;;;;;;4.22;3.65;;;;;;;8.59;54.27;100102.00;5001467;28;20094;-56
2021/04/29 04:54:19;;;;;;;7.07;3.65;;;;;;;9.12;54.19;100084.38;5000993;28;20026;-57
2021/04/29 04:56:46;;;;;;;5.13;3.80;;;;;;;9.50;51.88;100096.94;5001064;28;20334;-58
2021/04/29 04:59:13;;;;;;;4.88;3.92;;;;;;;9.99;52.71;100094.63;5001210;28;20049;-58
2021/04/29 05:01:43;;;;;;;6.78;3.90;;;;;;;11.04;50.26;100083.69;5003241;28;20030;-58
2021/04/29 05:04:09;;;;;;;5.15;4.00;;;;;;;11.16;47.65;100054.09;4987747;28;20037;-57
2021/04/29 05:06:35;;;;;;;4.45;3.53;;;;;;;11.98;47.55;100085.41;4988634;28;20030;-58
2021/04/29 05:09:02;;;;;;;6.78;3.90;;;;;;;12.62;45.81;100092.69;5003739;28;20080;-58
2021/04/29 05:11:28;;;;;;;4.65;3.60;;;;;;;13.38;44.31;100082.16;5014403;28;20100;-56
2021/04/29 05:13:54;;;;;;;6.78;3.95;;;;;;;13.19;43.38;100089.53;5015469;28;20366;-58
2021/04/29 05:16:20;;;;;;;6.15;3.85;;;;;;;13.72;41.56;100085.56;5044008;28;20307;-58
2021/04/29 05:18:45;;;;;;;4.65;3.20;;;;;;;13.15;41.90;100090.50;5010038;28;20030;-58
2021/04/29 05:21:11;;;;;;;4.22;3.08;;;;;;;13.88;44.32;100089.47;5016312;28;20048;-57
2021/04/29 05:23:40;;;;;;;5.65;3.38;;;;;;;13.40;41.20;100088.16;5024571;28;20022;-57
2021/04/29 05:26:06;;;;;;;4.07;3.20;;;;;;;13.72;40.89;100089.00;5023731;28;20088;-58
2021/04/29 05:28:32;;;;;;;4.32;3.38;;;;;;;13.67;41.97;100092.63;5010223;28;20054;-58
2021/04/29 05:30:58;;;;;;;4.15;3.30;;;;;;;14.56;40.67;100099.59;5002809;28;20026;-55
2021/04/29 05:33:24;;;;;;;3.90;3.03;;;;;;;13.97;41.24;100094.38;5002755;28;20037;-55
2021/04/29 05:35:49;;;;;;;3.08;2.70;;;;;;;12.72;39.57;100095.00;5003085;28;20223;-55
2021/04/29 05:38:17;;;;;;;6.45;3.55;;;;;;;11.86;43.91;100107.25;5002912;28;20342;-55
2021/04/29 05:40:42;;;;;;;5.70;3.20;;;;;;;13.01;42.96;100101.28;5002765;28;20030;-56
2021/04/29 05:43:08;;;;;;;6.60;3.85;;;;;;;12.67;42.84;100109.00;5002363;28;20038;-55
2021/04/29 05:45:35;;;;;;;5.95;3.08;;;;;;;12.95;41.83;100107.47;5003725;28;20049;-56
2021/04/29 05:48:01;;;;;;;3.67;2.97;;;;;;;12.82;42.47;100105.19;5004239;28;20026;-56
2021/04/29 05:50:27;;;;;;;3.95;3.05;;;;;;;12.30;40.68;100107.22;5006044;28;20227;-55
2021/04/29 05:52:52;;;;;;;3.35;2.90;;;;;;;12.36;42.86;100113.16;5011396;28;20034;-55
2021/04/29 05:55:18;;;;;;;4.72;3.33;;;;;;;12.14;43.21;100110.19;5020986;28;20053;-56
2021/04/29 05:57:44;;;;;;;2.78;2.53;;;;;;;12.31;40.44;100109.78;5017595;28;20042;-56
2021/04/29 06:00:10;;;;;;;4.28;3.22;;;;;;;12.18;40.77;100109.19;5003124;28;20102;-56
2021/04/29 06:02:37;;;;;;;3.75;3.05;;;;;;;13.46;40.19;100102.75;5013003;28;20036;-58
2021/04/29 06:05:03;;;;;;;6.68;3.45;;;;;;;13.63;40.42;100099.69;5015872;28;20040;-60
2021/04/29 06:07:29;;;;;;;8.15;3.78;;;;;;;12.82;40.30;100107.81;5006511;28;20101;-58
2021/04/29 06:09:55;;;;;;;5.13;3.20;;;;;;;12.06;42.20;100106.88;5008671;28;20052;-58
2021/04/29 06:12:21;;;;;;;4.10;3.30;;;;;;;12.29;42.16;100110.72;5011313;28;20069;-58
2021/04/29 06:14:47;;;;;;;4.88;3.95;;;;;;;12.24;40.70;100114.28;5002385;28;20029;-58
2021/04/29 06:17:13;;;;;;;6.82;3.67;;;;;;;12.22;41.70;100110.84;5002891;28;20077;-58
2021/04/29 06:19:39;;;;;;;4.70;3.60;;;;;;;12.31;38.79;100104.59;5002865;28;20037;-58
2021/04/29 06:22:06;;;;;;;4.57;3.85;;;;;;;12.52;40.62;100118.84;5002949;28;20030;-58
2021/04/29 06:24:32;;;;;;;4.25;3.78;;;;;;;12.93;41.97;100118.78;5002773;28;20095;-58
2021/04/29 06:26:58;;;;;;;3.30;3.00;;;;;;;13.39;38.54;100114.22;5002351;28;20458;-58
2021/04/29 06:29:24;;;;;;;6.40;2.97;;;;;;;13.44;36.23;100118.41;5003467;28;20034;-57
2021/04/29 06:31:50;;;;;;;5.28;3.53;;;;;;;13.35;38.13;100125.59;5003389;28;20121;-58
2021/04/29 06:34:15;;;;;;;6.70;3.58;;;;;;;12.86;38.84;100132.84;5003090;28;20034;-57
2021/04/29 06:36:41;;;;;;;5.70;3.28;;;;;;;13.01;37.88;100126.41;5002128;28;20033;-57
2021/04/29 06:39:07;;;;;;;4.70;2.78;;;;;;;12.49;37.43;100133.66;5003504;28;20030;-58
2021/04/29 06:41:33;;;;;;;3.88;3.22;;;;;;;13.40;38.65;100128.94;5003023;28;20034;-58
2021/04/29 06:43:59;;;;;;;4.65;3.38;;;;;;;13.06;38.21;100125.41;5002845;28;20227;-58
2021/04/29 06:46:25;;;;;;;4.47;3.22;;;;;;;12.93;39.40;100129.19;5003094;28;20033;-58
2021/04/29 06:48:51;;;;;;;3.97;3.58;;;;;;;12.47;38.57;100131.13;5003215;28;20026;-58
2021/04/29 06:51:17;;;;;;;3.53;3.22;;;;;;;13.21;37.01;100124.19;5002990;28;20026;-57
2021/04/29 06:53:42;;;;;;;3.55;3.17;;;;;;;12.89;37.38;100120.59;5003355;28;20187;-57
2021/04/29 06:56:08;;;;;;;4.85;3.20;;;;;;;13.00;36.61;100112.56;5002970;28;20037;-57
2021/04/29 06:58:34;;;;;;;6.93;4.10;;;;;;;12.28;38.95;100125.44;5002806;28;20100;-58
2021/04/29 07:01:02;;;;;;;5.07;3.45;;;;;;;12.67;35.32;100128.06;5002986;28;20553;-57
2021/04/29 07:03:28;;;;;;;6.50;3.38;;;;;;;12.39;40.17;100133.84;5002711;28;20112;-57
2021/04/29 07:05:54;;;;;;;5.97;2.63;;;;;;;12.51;37.13;100132.75;5002764;28;20323;-56
2021/04/29 07:08:20;;;;;;;5.95;3.03;;;;;;;13.16;34.54;100130.38;5002470;28;20046;-57
2021/04/29 07:10:48;;;;;;;3.97;2.60;;;;;;;13.61;35.28;100128.38;5003001;28;20056;-57
2021/04/29 07:13:15;;;;;;;5.55;3.10;;;;;;;14.47;32.20;100135.47;5002312;28;20030;-57
2021/04/29 07:15:41;;;;;;;4.78;2.45;;;;;;;15.08;33.13;100126.66;5002726;28;20038;-57
2021/04/29 07:18:09;;;;;;;4.40;3.00;;;;;;;14.52;35.18;100132.72;5002571;28;20053;-57
2021/04/29 07:20:36;;;;;;;3.88;3.00;;;;;;;12.45;37.34;100140.66;5002439;28;20061;-57
2021/04/29 07:23:04;;;;;;;7.30;3.17;;;;;;;12.99;35.98;100149.84;5002512;28;20369;-57
2021/04/29 07:25:31;;;;;;;6.72;3.00;;;;;;;14.60;33.86;100132.50;5002099;28;20035;-58
2021/04/29 07:27:57;;;;;;;9.80;3.25;;;;;;;14.75;35.44;100139.00;5002243;28;20093;-58
2021/04/29 07:30:23;;;;;;;3.63;2.70;;;;;;;14.72;31.98;100141.72;5002273;28;20097;-58
2021/04/29 07:32:49;;;;;;;5.28;3.70;;;;;;;15.10;34.10;100137.03;5002290;28;20158;-58
2021/04/29 07:35:15;;;;;;;3.10;2.60;;;;;;;15.10;32.97;100130.06;5001866;28;20034;-58
2021/04/29 07:37:41;;;;;;;3.80;3.08;;;;;;;14.99;34.15;100133.03;5002044;28;20026;-58
2021/04/29 07:40:20;;;;;;;3.90;2.42;;;;;;;14.31;31.08;100124.66;5002498;28;20207;-58
2021/04/29 07:42:46;;;;;;;4.53;3.17;;;;;;;13.89;34.00;100131.97;5002260;28;20076;-57
2021/04/29 07:45:12;;;;;;;5.53;2.70;;;;;;;14.37;32.01;100125.38;5001727;28;20034;-58
2021/04/29 07:47:39;;;;;;;3.15;2.60;;;;;;;14.02;34.31;100127.25;5002433;28;20049;-57
2021/04/29 07:50:05;;;;;;;4.55;2.45;;;;;;;13.58;34.89;100136.25;5002069;28;20048;-58
2021/04/29 07:52:31;;;;;;;3.38;2.35;;;;;;;13.33;34.00;100133.41;5002151;28;20053;-57
2021/04/29 07:54:57;;;;;;;3.65;2.38;;;;;;;13.78;35.39;100135.72;5002172;28;20034;-57
2021/04/29 07:57:24;;;;;;;4.80;2.55;;;;;;;13.83;33.76;100132.13;5001177;28;20030;-58
2021/04/29 07:59:50;;;;;;;3.65;2.47;;;;;;;13.86;33.11;100127.69;5001883;28;20026;-59
2021/04/29 08:02:15;;;;;;;6.57;3.03;;;;;;;13.50;34.55;100126.97;5011135;28;20108;-58
2021/04/29 08:04:41;;;;;;;3.90;2.30;;;;;;;13.00;34.01;100130.75;5016779;28;20037;-58
2021/04/29 08:07:07;;;;;;;2.72;2.50;;;;;;;13.03;33.07;100129.84;5000714;28;20030;-57
2021/04/29 08:09:33;;;;;;;3.33;2.80;;;;;;;13.32;32.40;100129.09;5001631;28;20212;-56
2021/04/29 08:11:58;;;;;;;2.70;2.42;;;;;;;12.34;32.46;100135.72;5001710;28;20196;-58
2021/04/29 08:14:24;;;;;;;5.32;2.50;;;;;;;12.08;35.12;100134.53;5001342;28;20068;-58
2021/04/29 08:16:50;;;;;;;4.50;2.08;;;;;;;11.95;34.46;100127.00;5001883;28;20047;-58
2021/04/29 08:19:16;;;;;;;6.97;2.40;;;;;;;12.14;36.05;100132.66;5001861;28;20338;-58
2021/04/29 08:21:42;;;;;;;4.80;2.30;;;;;;;11.98;34.52;100137.31;5001941;28;20042;-57
2021/04/29 08:24:09;;;;;;;3.83;2.50;;;;;;;12.35;35.40;100127.00;5001902;28;20053;-57
2021/04/29 08:26:35;;;;;;;5.22;2.38;;;;;;;12.54;34.10;100124.00;5001716;28;20050;-58
2021/04/29 08:29:01;;;;;;;3.90;2.75;;;;;;;13.22;34.53;100119.81;5001670;28;20223;-58
2021/04/29 08:31:27;;;;;;;7.28;2.90;;;;;;;12.90;34.01;100119.72;5001194;28;20042;-58
2021/04/29 08:33:53;;;;;;;3.47;2.50;;;;;;;12.55;34.78;100118.78;5000236;28;20045;-58
2021/04/29 08:36:19;;;;;;;5.20;2.55;;;;;;;12.62;33.77;100113.47;5003976;28;20033;-58
2021/04/29 08:38:45;;;;;;;2.90;2.60;;;;;;;12.72;34.52;100113.19;5005418;28;20026;-58
2021/04/29 08:41:11;;;;;;;3.72;2.58;;;;;;;12.09;34.92;100122.38;5005560;28;20030;-58
2021/04/29 08:43:37;;;;;;;4.65;2.53;;;;;;;12.16;34.56;100123.13;5005451;28;20037;-57
2021/04/29 08:46:05;;;;;;;3.35;2.47;;;;;;;12.09;33.54;100117.19;5004788;28;20310;-57
2021/04/29 08:48:32;;;;;;;4.60;3.03;;;;;;;11.97;34.02;100122.63;5005718;28;20026;-57
2021/04/29 08:50:58;;;;;;;6.72;2.22;;;;;;;12.48;34.29;100119.81;5005460;28;20034;-57
2021/04/29 08:53:24;;;;;;;4.30;2.50;;;;;;;13.10;33.83;100113.19;5005320;28;20057;-56
2021/04/29 08:55:50;;;;;;;5.82;2.80;;;;;;;12.67;31.93;100070.91;5005440;28;20169;-57
2021/04/29 08:58:16;;;;;;;3.50;2.40;;;;;;;12.47;32.58;100105.13;5004835;28;20319;-56
2021/04/29 09:00:59;;;;;;;4.03;2.30;;;;;;;13.02;34.61;100071.75;5004560;28;20070;-57
2021/04/29 09:03:33;;;;;;;3.05;2.40;;;;;;;12.87;34.54;100099.00;5004816;28;20030;-58
2021/04/29 09:06:01;;;;;;;3.67;2.20;;;;;;;12.82;34.99;100100.00;5005596;28;20049;-57
2021/04/29 09:08:31;;;;;;;3.92;2.50;;;;;;;12.59;32.96;100102.22;5005679;28;20050;-58
2021/04/29 09:11:11;;;;;;;3.35;2.40;;;;;;;12.70;32.80;100098.56;5006028;28;20187;-57
2021/04/29 09:13:38;;;;;;;6.95;2.67;;;;;;;12.97;34.02;100096.16;5002049;28;20315;-57
2021/04/29 09:16:12;;;;;;;2.53;2.00;;;;;;;12.62;33.96;100101.31;5003455;28;20204;-58
2021/04/29 09:18:42;;;;;;;6.40;1.98;;;;;;;12.47;33.64;100097.34;5004469;28;20031;-58
2021/04/29 09:21:14;;;;;;;4.78;2.10;;;;;;;12.30;32.58;100096.84;5005473;28;20034;-57
2021/04/29 09:23:41;;;;;;;3.45;2.60;;;;;;;12.09;36.17;100101.63;5005812;28;20030;-58
2021/04/29 09:26:15;;;;;;;2.78;2.00;;;;;;;11.73;34.11;100046.97;5005591;28;20030;-58
2021/04/29 09:28:45;;;;;;;5.53;2.20;;;;;;;11.77;34.23;100102.22;5005713;28;20109;-57
2021/04/29 09:31:23;;;;;;;5.65;2.35;;;;;;;11.57;32.58;100093.97;4992029;28;20034;-58
2021/04/29 09:33:53;;;;;;;2.88;2.53;;;;;;;11.55;33.50;100097.47;4986255;28;20395;-58
2021/04/29 09:36:33;;;;;;;4.25;2.10;;;;;;;11.58;32.12;100098.25;5004699;28;20323;-57
2021/04/29 09:39:11;;;;;;;4.38;2.10;;;;;;;11.44;32.57;100089.88;5005262;28;20029;-58
2021/04/29 09:41:47;;;;;;;2.22;1.95;;;;;;;11.34;34.09;100080.56;5005356;28;20182;-58
2021/04/29 09:44:18;;;;;;;5.50;2.08;;;;;;;11.29;34.80;100069.44;5005043;28;20323;-58
2021/04/29 09:46:53;;;;;;;6.20;2.47;;;;;;;11.21;36.42;100047.06;5004497;28;20050;-58
2021/04/29 09:49:19;;;;;;;3.10;2.15;;;;;;;11.76;35.39;100096.19;5005217;28;20098;-58
2021/04/29 09:51:46;;;;;;;4.43;2.20;;;;;;;11.43;34.41;100092.50;5005184;28;20030;-57
2021/04/29 09:54:23;;;;;;;2.65;2.10;;;;;;;11.14;33.58;100062.75;5005373;28;20299;-57
2021/04/29 09:56:56;;;;;;;3.55;2.20;;;;;;;11.29;35.06;100082.38;5005118;28;20037;-57
2021/04/29 09:59:23;;;;;;;2.45;2.25;;;;;;;11.28;34.15;100078.06;5004857;28;20085;-56
2021/04/29 10:01:51;;;;;;;3.58;2.00;;;;;;;11.50;36.18;100082.00;5004922;28;20026;-57
2021/04/29 10:04:17;;;;;;;4.25;2.13;;;;;;;11.81;36.76;100081.38;5004577;28;20053;-57
2021/04/29 10:06:45;;;;;;;2.60;2.40;;;;;;;11.48;34.67;100078.56;5004765;28;20346;-56
2021/04/29 10:09:13;;;;;;;3.45;2.47;;;;;;;11.89;34.70;100070.84;5004947;28;20050;-57
2021/04/29 10:11:40;;;;;;;4.30;2.53;;;;;;;11.78;33.45;100070.22;5004914;28;20068;-57
2021/04/29 10:14:08;;;;;;;6.78;2.70;;;;;;;11.40;35.93;100016.47;5004339;28;20323;-57
2021/04/29 10:16:33;;;;;;;12.63;3.10;;;;;;;11.75;34.79;100071.13;5004376;28;20261;-57
2021/04/29 10:18:59;;;;;;;5.95;2.95;;;;;;;12.05;34.96;100058.44;5004779;28;20385;-57
2021/04/29 10:21:26;;;;;;;4.75;2.72;;;;;;;12.20;35.61;100059.81;5004832;28;20094;-57
2021/04/29 10:23:52;;;;;;;6.35;2.90;;;;;;;12.25;34.92;100069.22;5004360;28;20280;-56
2021/04/29 10:26:30;;;;;;;4.28;2.65;;;;;;;12.07;34.58;100069.63;5004074;28;20030;-58
2021/04/29 10:29:01;;;;;;;3.50;2.00;;;;;;;11.95;34.34;100077.69;5004377;28;20034;-56
2021/04/29 10:31:31;;;;;;;2.17;1.73;;;;;;;12.22;31.74;100082.28;5003720;28;20034;-58
2021/04/29 10:33:59;;;;;;;2.03;1.83;;;;;;;12.12;34.17;100073.00;5004238;28;20054;-57
2021/04/29 10:36:48;;;;;;;4.03;2.50;;;;;;;11.67;35.08;100057.44;5003457;28;20334;-57
2021/04/29 10:39:19;;;;;;;4.78;2.30;;;;;;;11.61;33.02;100066.19;5004264;28;20077;-58
2021/04/29 10:41:47;;;;;;;4.03;2.97;;;;;;;11.58;33.84;100011.78;5004214;28;20311;-58
2021/04/29 10:44:16;;;;;;;2.67;2.13;;;;;;;12.03;34.72;100008.31;5003852;28;20106;-57
2021/04/29 10:46:44;;;;;;;4.32;2.53;;;;;;;12.39;34.55;100004.00;5003972;28;20215;-58
2021/04/29 10:49:13;;;;;;;4.22;2.40;;;;;;;12.60;34.84;100053.75;5003671;28;20027;-58
2021/04/29 10:51:44;;;;;;;3.50;2.40;;;;;;;12.50;32.12;100008.06;5004003;28;20068;-57
2021/04/29 10:54:19;;;;;;;6.60;2.47;;;;;;;12.57;31.42;100065.06;5004112;28;20395;-56
2021/04/29 10:57:01;;;;;;;4.68;2.35;;;;;;;12.39;32.91;100004.00;5003932;28;20080;-57
2021/04/29 10:59:41;;;;;;;3.75;2.17;;;;;;;13.01;31.88;100043.19;5002882;28;20045;-57
2021/04/29 11:02:27;;;;;;;6.13;2.90;;;;;;;13.14;32.71;100055.00;5013238;28;20042;-57
2021/04/29 11:04:55;;;;;;;5.60;2.80;;;;;;;12.80;32.33;99998.69;5005066;28;20041;-57
2021/04/29 11:07:22;;;;;;;2.40;2.20;;;;;;;13.29;32.94;100056.34;5002953;28;20053;-57
2021/04/29 11:10:03;;;;;;;4.60;2.72;;;;;;;12.78;33.65;100052.44;5022407;28;20393;-57
2021/04/29 11:12:48;;;;;;;3.17;2.67;;;;;;;12.41;31.98;100048.09;5023354;28;20034;-57
2021/04/29 11:15:40;;;;;;;3.97;2.50;;;;;;;11.87;31.38;100003.41;5009898;28;20088;-58
2021/04/29 11:18:10;;;;;;;3.67;2.80;;;;;;;12.10;32.63;100048.81;5002878;28;20036;-57
2021/04/29 11:20:53;;;;;;;3.50;2.63;;;;;;;12.37;33.88;100036.06;5003552;28;20267;-58
2021/04/29 11:23:27;;;;;;;11.80;3.28;;;;;;;12.17;33.08;99990.66;5003774;28;20030;-58
2021/04/29 11:26:15;;;;;;;4.35;2.67;;;;;;;12.64;34.77;100036.31;5003603;28;20026;-57
2021/04/29 11:28:42;;;;;;;4.55;2.50;;;;;;;12.60;31.90;100043.34;5003004;28;20361;-57
2021/04/29 11:31:08;;;;;;;5.72;3.10;;;;;;;12.69;32.59;100037.06;5000831;28;20050;-57
2021/04/29 11:33:39;;;;;;;4.93;2.85;;;;;;;12.82;34.47;100040.22;5003207;28;20341;-57